createdAt,value
2023-05-11T00:00:39.843Z,2.25
2023-05-11T00:03:06.982Z,2.47
2023-05-11T00:05:33.541Z,2.00
2023-05-11T00:07:59.886Z,2.40
2023-05-11T00:10:28.165Z,2.50
2023-05-11T00:12:54.504Z,2.78
2023-05-11T00:15:21.080Z,2.20
2023-05-11T00:17:47.932Z,2.70
2023-05-11T00:20:14.286Z,2.50
2023-05-11T00:22:43.490Z,2.50
2023-05-11T00:25:11.585Z,2.10
2023-05-11T00:27:38.180Z,2.80
2023-05-11T00:30:05.036Z,2.58
2023-05-11T00:32:31.605Z,2.45
2023-05-11T00:34:58.005Z,2.40
2023-05-11T00:37:25.894Z,2.10
2023-05-11T00:39:53.072Z,2.50
2023-05-11T00:42:19.406Z,2.53
2023-05-11T00:44:45.874Z,2.33
2023-05-11T00:47:12.934Z,2.42
2023-05-11T00:49:39.825Z,2.35
2023-05-11T00:52:06.348Z,2.25
2023-05-11T00:54:33.767Z,2.63
2023-05-11T00:57:00.118Z,3.30
2023-05-11T00:59:27.149Z,2.85
2023-05-11T01:01:54.147Z,2.40
2023-05-11T01:04:20.772Z,2.72
2023-05-11T01:07:18.271Z,3.08
2023-05-11T01:10:03.747Z,2.90
2023-05-11T01:12:34.897Z,2.83
2023-05-11T01:15:13.441Z,2.90
2023-05-11T01:17:59.751Z,3.17
2023-05-11T01:20:29.350Z,2.83
2023-05-11T01:23:00.878Z,3.10
2023-05-11T01:25:52.510Z,3.05
2023-05-11T01:28:40.377Z,3.25
2023-05-11T01:31:11.620Z,3.10
2023-05-11T01:33:44.314Z,3.30
2023-05-11T01:36:12.683Z,3.20
2023-05-11T01:38:42.185Z,3.22
2023-05-11T01:41:13.634Z,2.97
2023-05-11T01:43:42.960Z,3.35
2023-05-11T01:46:10.671Z,3.50
2023-05-11T01:48:41.493Z,3.60
2023-05-11T01:51:10.383Z,3.15
2023-05-11T01:53:38.368Z,3.70
2023-05-11T01:56:06.914Z,3.92
2023-05-11T01:58:35.962Z,3.85
2023-05-11T02:01:04.027Z,5.35
2023-05-11T02:03:33.344Z,5.60
2023-05-11T02:06:01.570Z,5.57
2023-05-11T02:08:31.110Z,4.93
2023-05-11T02:10:59.285Z,5.45
2023-05-11T02:13:27.383Z,4.35
2023-05-11T02:15:58.928Z,4.97
2023-05-11T02:18:25.893Z,4.18
2023-05-11T02:20:53.211Z,5.00
2023-05-11T02:23:21.884Z,4.10
2023-05-11T02:25:50.034Z,4.60
2023-05-11T02:28:16.361Z,4.93
2023-05-11T02:30:48.261Z,4.85
2023-05-11T02:33:21.541Z,4.78
2023-05-11T02:35:50.902Z,5.22
2023-05-11T02:38:18.778Z,4.93
2023-05-11T02:40:51.907Z,4.75
2023-05-11T02:43:25.357Z,5.03
2023-05-11T02:45:57.478Z,4.97
2023-05-11T02:48:27.404Z,5.20
2023-05-11T02:50:56.131Z,5.28
2023-05-11T02:53:27.725Z,5.43
2023-05-11T02:55:58.113Z,5.25
2023-05-11T02:58:24.764Z,5.53
2023-05-11T03:00:51.931Z,5.55
2023-05-11T03:03:18.817Z,5.85
2023-05-11T03:05:45.533Z,5.78
2023-05-11T03:08:12.418Z,5.70
2023-05-11T03:10:39.534Z,5.97
2023-05-11T03:13:07.446Z,5.88
2023-05-11T03:15:34.434Z,6.10
2023-05-11T03:18:01.841Z,7.35
2023-05-11T03:20:29.622Z,6.18
2023-05-11T03:22:56.774Z,6.43
2023-05-11T03:25:24.765Z,7.07
2023-05-11T03:27:53.269Z,6.53
2023-05-11T03:30:20.722Z,6.38
2023-05-11T03:32:47.393Z,6.82
2023-05-11T03:35:14.397Z,6.28
2023-05-11T03:37:43.253Z,6.85
2023-05-11T03:40:12.235Z,6.50
2023-05-11T03:42:41.221Z,5.93
2023-05-11T03:45:13.841Z,6.82
2023-05-11T03:47:42.898Z,6.07
2023-05-11T03:50:10.011Z,6.70
2023-05-11T03:52:37.721Z,6.00
2023-05-11T03:55:05.166Z,5.95
2023-05-11T03:57:31.648Z,6.90
2023-05-11T03:59:58.517Z,6.85
2023-05-11T04:02:25.036Z,5.32
2023-05-11T04:04:53.014Z,7.13
2023-05-11T04:07:20.136Z,6.10
2023-05-11T04:09:46.480Z,6.00
2023-05-11T04:12:12.851Z,6.53
2023-05-11T04:14:39.560Z,5.82
2023-05-11T04:17:05.988Z,6.32
2023-05-11T04:19:32.712Z,6.13
2023-05-11T04:21:59.301Z,6.38
2023-05-11T04:24:25.691Z,5.60
2023-05-11T04:26:56.031Z,5.65
2023-05-11T04:29:22.790Z,5.72
2023-05-11T04:31:49.489Z,6.05
2023-05-11T04:34:15.927Z,5.40
2023-05-11T04:36:42.686Z,5.78
2023-05-11T04:39:09.010Z,5.50
2023-05-11T04:41:35.383Z,5.07
2023-05-11T04:44:02.109Z,4.35
2023-05-11T04:46:28.548Z,5.03
2023-05-11T04:48:54.981Z,5.10
2023-05-11T04:51:21.697Z,5.22
2023-05-11T04:53:48.025Z,4.80
2023-05-11T04:56:14.371Z,4.45
2023-05-11T04:58:41.363Z,4.97
2023-05-11T05:01:07.733Z,5.47
2023-05-11T05:03:34.193Z,5.85
2023-05-11T05:06:00.974Z,5.40
2023-05-11T05:08:27.317Z,5.38
2023-05-11T05:10:53.739Z,4.85
2023-05-11T05:13:20.494Z,5.45
2023-05-11T05:15:46.900Z,5.45
2023-05-11T05:18:13.251Z,4.68
2023-05-11T05:20:40.197Z,4.85
2023-05-11T05:23:06.514Z,4.38
2023-05-11T05:25:32.828Z,4.30
2023-05-11T05:27:59.588Z,4.00
2023-05-11T05:30:26.209Z,4.05
2023-05-11T05:32:52.667Z,4.18
2023-05-11T05:35:19.566Z,4.10
2023-05-11T05:37:46.370Z,4.07
2023-05-11T05:40:12.770Z,3.67
2023-05-11T05:42:39.325Z,3.78
2023-05-11T05:45:06.219Z,3.78
2023-05-11T05:47:32.663Z,3.33
2023-05-11T05:49:59.370Z,3.40
2023-05-11T05:52:25.838Z,3.55
2023-05-11T05:54:52.167Z,2.83
2023-05-11T05:57:18.874Z,2.65
2023-05-11T05:59:45.253Z,2.10
2023-05-11T06:02:13.375Z,2.53
2023-05-11T06:04:40.173Z,2.45
2023-05-11T06:07:06.493Z,2.60
2023-05-11T06:09:32.822Z,2.28
2023-05-11T06:11:59.795Z,2.80
2023-05-11T06:14:26.127Z,2.20
2023-05-11T06:16:54.140Z,2.42
2023-05-11T06:19:20.509Z,2.38
2023-05-11T06:21:48.468Z,2.38
2023-05-11T06:24:15.164Z,2.45
2023-05-11T06:26:41.554Z,2.00
2023-05-11T06:29:08.020Z,2.42
2023-05-11T06:31:34.933Z,2.10
2023-05-11T06:34:01.347Z,2.10
2023-05-11T06:36:27.726Z,2.30
2023-05-11T06:38:54.493Z,2.10
2023-05-11T06:41:21.328Z,2.33
2023-05-11T06:43:47.700Z,2.40
2023-05-11T06:46:16.762Z,2.60
2023-05-11T06:48:43.432Z,2.50
2023-05-11T06:51:11.456Z,2.67
2023-05-11T06:53:38.851Z,2.45
2023-05-11T06:56:05.645Z,2.78
2023-05-11T06:58:32.043Z,2.75
2023-05-11T07:00:58.836Z,2.75
2023-05-11T07:03:25.185Z,2.72
2023-05-11T07:05:51.561Z,2.40
2023-05-11T07:08:18.352Z,2.70
2023-05-11T07:10:44.702Z,2.53
2023-05-11T07:13:11.128Z,2.90
2023-05-11T07:15:37.910Z,2.50
2023-05-11T07:18:04.494Z,2.70
2023-05-11T07:20:31.133Z,2.95
2023-05-11T07:23:02.536Z,2.72
2023-05-11T07:25:29.634Z,2.70
2023-05-11T07:27:56.160Z,2.47
2023-05-11T07:30:23.116Z,2.85
2023-05-11T07:32:49.917Z,2.13
2023-05-11T07:35:16.347Z,2.50
2023-05-11T07:37:43.138Z,1.92
2023-05-11T07:40:10.317Z,2.10
2023-05-11T07:42:36.703Z,2.40
2023-05-11T07:45:03.588Z,2.47
2023-05-11T07:47:29.953Z,2.03
2023-05-11T07:49:56.371Z,1.77
2023-05-11T07:52:23.190Z,1.52
2023-05-11T07:54:49.528Z,1.52
2023-05-11T07:57:15.881Z,1.77
2023-05-11T07:59:42.665Z,1.85
2023-05-11T08:02:10.981Z,1.55
2023-05-11T08:04:39.640Z,1.80
2023-05-11T08:07:06.039Z,1.85
2023-05-11T08:09:32.510Z,1.75
2023-05-11T08:12:02.052Z,1.75
2023-05-11T08:14:28.477Z,1.98
2023-05-11T08:16:54.887Z,1.70
2023-05-11T08:19:21.625Z,1.88
2023-05-11T08:21:48.121Z,1.65
2023-05-11T08:24:14.989Z,1.75
2023-05-11T08:26:41.786Z,1.80
2023-05-11T08:29:08.161Z,1.48
2023-05-11T08:31:34.601Z,1.50
2023-05-11T08:34:01.552Z,1.40
2023-05-11T08:36:28.074Z,1.70
2023-05-11T08:38:58.991Z,1.52
2023-05-11T08:41:26.208Z,1.50
2023-05-11T08:43:54.975Z,1.52
2023-05-11T08:46:23.535Z,1.50
2023-05-11T08:48:50.778Z,1.40
2023-05-11T08:51:17.229Z,1.90
2023-05-11T08:53:43.604Z,1.70
2023-05-11T08:56:12.179Z,1.50
2023-05-11T08:58:39.802Z,1.55
2023-05-11T09:01:07.168Z,1.73
2023-05-11T09:03:36.343Z,1.52
2023-05-11T09:06:07.124Z,1.70
2023-05-11T09:08:38.411Z,1.73
2023-05-11T09:11:06.070Z,1.45
2023-05-11T09:13:33.069Z,1.40
2023-05-11T09:15:59.835Z,1.60
2023-05-11T09:18:26.732Z,1.60
2023-05-11T09:20:53.201Z,1.20
2023-05-11T09:23:25.858Z,1.25
2023-05-11T09:25:55.100Z,1.65
2023-05-11T09:28:27.187Z,1.30
2023-05-11T09:30:53.903Z,1.40
2023-05-11T09:33:25.499Z,1.45
2023-05-11T09:35:54.421Z,1.33
2023-05-11T09:38:22.942Z,1.30
2023-05-11T09:40:55.477Z,1.20
2023-05-11T09:43:27.434Z,1.27
2023-05-11T09:46:01.753Z,1.25
2023-05-11T09:48:31.648Z,1.20
2023-05-11T09:51:08.366Z,1.35
2023-05-11T09:53:45.297Z,1.20
2023-05-11T09:56:13.338Z,1.65
2023-05-11T09:58:55.001Z,1.10
2023-05-11T10:01:33.448Z,1.30
2023-05-11T10:04:20.550Z,1.10
2023-05-11T10:06:50.785Z,1.30
2023-05-11T10:09:22.437Z,1.40
2023-05-11T10:11:51.782Z,1.20
2023-05-11T10:14:19.112Z,1.30
2023-05-11T10:16:46.811Z,1.13
2023-05-11T10:19:14.702Z,1.17
2023-05-11T10:21:41.353Z,1.00
2023-05-11T10:24:08.296Z,0.98
2023-05-11T10:26:35.542Z,1.10
2023-05-11T10:29:02.672Z,0.77
2023-05-11T10:31:29.754Z,1.05
2023-05-11T10:33:57.897Z,1.00
2023-05-11T10:36:25.459Z,1.20
2023-05-11T10:38:51.816Z,0.95
2023-05-11T10:41:39.542Z,1.00
2023-05-11T10:44:14.911Z,1.10
2023-05-11T10:47:22.099Z,0.88
2023-05-11T10:50:27.156Z,1.00
2023-05-11T10:53:01.858Z,0.90
2023-05-11T10:55:47.138Z,0.90
2023-05-11T10:58:19.998Z,1.20
2023-05-11T11:01:12.431Z,0.80
2023-05-11T11:03:39.079Z,1.00
2023-05-11T11:06:05.738Z,0.95
2023-05-11T11:09:27.220Z,0.98
2023-05-11T11:12:09.620Z,0.93
2023-05-11T11:14:55.023Z,0.98
2023-05-11T11:17:24.385Z,0.95
2023-05-11T11:19:50.867Z,0.90
2023-05-11T11:22:35.756Z,0.90
2023-05-11T11:25:05.600Z,1.20
2023-05-11T11:27:56.253Z,1.08
2023-05-11T11:30:25.210Z,1.30
2023-05-11T11:32:54.035Z,1.10
2023-05-11T11:35:39.353Z,0.93
2023-05-11T11:38:09.466Z,0.85
2023-05-11T11:40:50.552Z,1.02
2023-05-11T11:43:26.045Z,0.95
2023-05-11T11:45:55.326Z,1.10
2023-05-11T11:48:36.222Z,1.30
2023-05-11T11:51:05.993Z,1.25
2023-05-11T11:53:40.773Z,1.40
2023-05-11T11:56:09.436Z,1.25
2023-05-11T11:58:41.667Z,0.60
2023-05-11T12:01:10.484Z,0.95
2023-05-11T12:03:37.738Z,1.10
2023-05-11T12:06:09.454Z,0.80
2023-05-11T12:08:38.191Z,1.00
2023-05-11T12:11:05.953Z,0.80
2023-05-11T12:13:33.866Z,1.00
2023-05-11T12:16:13.604Z,1.00
2023-05-11T12:18:42.187Z,1.10
2023-05-11T12:21:28.830Z,1.10
2023-05-11T12:23:59.369Z,0.98
2023-05-11T12:26:27.651Z,0.90
2023-05-11T12:29:08.000Z,0.73
2023-05-11T12:31:38.617Z,1.00
2023-05-11T12:34:05.279Z,1.10
2023-05-11T12:36:33.727Z,1.00
2023-05-11T12:39:00.604Z,1.00
2023-05-11T12:41:27.338Z,0.70
2023-05-11T12:43:56.475Z,0.80
2023-05-11T12:46:23.656Z,0.88
2023-05-11T12:48:51.328Z,1.10
2023-05-11T12:52:01.087Z,1.00
2023-05-11T12:54:38.418Z,0.90
2023-05-11T12:57:09.849Z,0.88
2023-05-11T12:59:39.097Z,0.85
2023-05-11T13:02:16.962Z,1.25
2023-05-11T13:04:44.202Z,0.95
2023-05-11T13:07:11.837Z,0.95
2023-05-11T13:09:39.486Z,1.10
2023-05-11T13:12:19.270Z,1.08
2023-05-11T13:14:48.012Z,0.98
2023-05-11T13:17:29.955Z,1.15
2023-05-11T13:19:56.607Z,1.10
2023-05-11T13:22:22.941Z,1.00
2023-05-11T13:24:50.904Z,0.88
2023-05-11T13:27:17.254Z,0.88
2023-05-11T13:29:43.618Z,1.00
2023-05-11T13:32:10.006Z,0.70
2023-05-11T13:34:37.680Z,0.73
2023-05-11T13:37:04.171Z,0.80
2023-05-11T13:39:30.531Z,0.85
2023-05-11T13:41:57.300Z,1.17
2023-05-11T13:44:23.634Z,1.00
2023-05-11T13:46:50.282Z,0.80
2023-05-11T13:49:17.810Z,0.88
2023-05-11T13:51:44.142Z,1.17
2023-05-11T13:54:10.541Z,0.85
2023-05-11T13:56:37.673Z,0.85
2023-05-11T13:59:04.067Z,1.17
2023-05-11T14:01:30.518Z,1.10
2023-05-11T14:03:57.222Z,1.10
2023-05-11T14:06:24.816Z,1.20
2023-05-11T14:08:51.930Z,0.93
2023-05-11T14:11:18.771Z,1.20
2023-05-11T14:13:45.145Z,1.08
2023-05-11T14:16:11.644Z,0.90
2023-05-11T14:18:38.532Z,1.20
2023-05-11T14:21:04.934Z,1.20
2023-05-11T14:23:31.394Z,1.10
2023-05-11T14:25:58.426Z,1.10
2023-05-11T14:28:24.840Z,1.30
2023-05-11T14:30:51.247Z,1.00
2023-05-11T14:33:18.028Z,0.93
2023-05-11T14:35:44.427Z,0.77
2023-05-11T14:38:11.430Z,0.90
2023-05-11T14:40:37.762Z,0.90
2023-05-11T14:43:04.155Z,1.00
2023-05-11T14:45:30.976Z,0.90
2023-05-11T14:47:57.367Z,0.98
2023-05-11T14:50:23.715Z,0.90
2023-05-11T14:52:50.798Z,0.90
2023-05-11T14:55:17.479Z,0.90
2023-05-11T14:57:44.002Z,1.00
2023-05-11T15:00:11.631Z,0.95
2023-05-11T15:02:38.231Z,0.85
2023-05-11T15:05:06.281Z,1.13
2023-05-11T15:07:32.944Z,1.02
2023-05-11T15:10:01.612Z,0.77
2023-05-11T15:12:28.131Z,1.10
2023-05-11T15:14:54.904Z,0.98
2023-05-11T15:17:21.366Z,1.10
2023-05-11T15:19:47.791Z,1.17
2023-05-11T15:22:14.484Z,1.10
2023-05-11T15:24:41.112Z,1.00
2023-05-11T15:27:07.544Z,1.00
2023-05-11T15:29:34.429Z,1.05
2023-05-11T15:32:01.063Z,0.85
2023-05-11T15:34:27.428Z,1.05
2023-05-11T15:36:54.351Z,1.10
2023-05-11T15:39:20.729Z,1.00
2023-05-11T15:41:47.054Z,0.80
2023-05-11T15:44:14.251Z,1.08
2023-05-11T15:46:40.778Z,1.00
2023-05-11T15:49:07.984Z,1.00
2023-05-11T15:51:34.420Z,0.90
2023-05-11T15:54:00.943Z,0.80
2023-05-11T15:56:27.706Z,0.90
2023-05-11T15:58:54.056Z,1.08
2023-05-11T16:01:20.974Z,1.00
2023-05-11T16:03:47.481Z,1.40
2023-05-11T16:06:13.858Z,1.05
2023-05-11T16:08:41.440Z,1.00
2023-05-11T16:11:08.853Z,0.90
2023-05-11T16:13:35.193Z,0.88
2023-05-11T16:16:01.595Z,1.00
2023-05-11T16:18:29.058Z,1.05
2023-05-11T16:20:56.308Z,0.98
2023-05-11T16:23:22.752Z,1.30
2023-05-11T16:25:49.496Z,1.10
2023-05-11T16:28:16.009Z,1.10
2023-05-11T16:30:42.556Z,1.20
2023-05-11T16:33:09.291Z,1.23
2023-05-11T16:35:35.760Z,0.80
2023-05-11T16:38:02.506Z,1.00
2023-05-11T16:40:30.718Z,1.00
2023-05-11T16:42:57.088Z,1.10
2023-05-11T16:45:23.512Z,0.90
2023-05-11T16:47:50.249Z,0.93
2023-05-11T16:50:18.688Z,1.20
2023-05-11T16:52:45.284Z,1.08
2023-05-11T16:55:11.747Z,1.20
2023-05-11T16:57:38.683Z,1.30
2023-05-11T17:00:06.337Z,1.38
2023-05-11T17:02:32.745Z,1.27
2023-05-11T17:05:00.023Z,1.17
2023-05-11T17:07:26.703Z,1.08
2023-05-11T17:09:56.786Z,1.17
2023-05-11T17:12:24.418Z,1.38
2023-05-11T17:14:50.786Z,1.30
2023-05-11T17:17:17.581Z,1.00
2023-05-11T17:19:44.243Z,1.38
2023-05-11T17:22:11.599Z,1.10
2023-05-11T17:24:38.165Z,1.25
2023-05-11T17:27:05.616Z,1.17
2023-05-11T17:29:32.680Z,1.02
2023-05-11T17:31:59.649Z,1.27
2023-05-11T17:34:28.633Z,1.10
2023-05-11T17:36:55.801Z,1.60
2023-05-11T17:39:22.165Z,1.25
2023-05-11T17:41:48.589Z,1.30
2023-05-11T17:44:15.512Z,1.77
2023-05-11T17:46:41.865Z,1.48
2023-05-11T17:49:08.302Z,1.50
2023-05-11T17:51:34.980Z,1.83
2023-05-11T17:54:01.334Z,2.05
2023-05-11T17:56:27.668Z,4.53
2023-05-11T17:58:54.967Z,1.80
2023-05-11T18:01:22.551Z,1.98
2023-05-11T18:03:49.163Z,1.58
2023-05-11T18:06:17.349Z,1.60
2023-05-11T18:08:43.891Z,1.70
2023-05-11T18:11:11.093Z,1.70
2023-05-11T18:13:37.842Z,1.58
2023-05-11T18:16:04.728Z,1.65
2023-05-11T18:18:31.882Z,1.70
2023-05-11T18:20:58.765Z,2.10
2023-05-11T18:23:25.099Z,1.95
2023-05-11T18:25:51.430Z,2.15
2023-05-11T18:28:18.317Z,3.05
2023-05-11T18:30:44.641Z,1.73
2023-05-11T18:33:11.383Z,1.73
2023-05-11T18:35:40.511Z,1.40
2023-05-11T18:38:07.392Z,1.40
2023-05-11T18:40:35.136Z,1.50
2023-05-11T18:43:01.476Z,1.70
2023-05-11T18:45:32.826Z,1.85
2023-05-11T18:47:59.688Z,1.60
2023-05-11T18:50:27.099Z,1.40
2023-05-11T18:52:53.463Z,1.70
2023-05-11T18:55:20.286Z,1.60
2023-05-11T18:57:46.768Z,2.08
2023-05-11T19:00:13.939Z,1.70
2023-05-11T19:02:40.350Z,1.50
2023-05-11T19:05:07.315Z,1.70
2023-05-11T19:07:34.097Z,2.00
2023-05-11T19:10:00.517Z,2.47
2023-05-11T19:12:27.210Z,2.38
2023-05-11T19:14:56.080Z,2.50
2023-05-11T19:17:23.577Z,2.95
2023-05-11T19:19:50.322Z,2.38
2023-05-11T19:22:17.342Z,2.20
2023-05-11T19:24:43.729Z,2.40
2023-05-11T19:27:10.602Z,2.65
2023-05-11T19:29:36.939Z,2.75
2023-05-11T19:32:04.001Z,2.63
2023-05-11T19:34:30.369Z,2.30
2023-05-11T19:36:56.716Z,2.40
2023-05-11T19:39:24.605Z,2.50
2023-05-11T19:41:51.372Z,2.40
2023-05-11T19:44:17.811Z,2.60
2023-05-11T19:46:46.875Z,2.80
2023-05-11T19:49:15.451Z,1.98
2023-05-11T19:51:42.958Z,1.77
2023-05-11T19:54:10.667Z,2.00
2023-05-11T19:56:37.052Z,1.70
2023-05-11T19:59:04.880Z,2.28
2023-05-11T20:01:31.469Z,2.13
2023-05-11T20:03:58.041Z,2.17
2023-05-11T20:06:27.878Z,1.67
2023-05-11T20:08:54.280Z,1.95
2023-05-11T20:11:22.333Z,2.20
2023-05-11T20:13:49.134Z,2.00
2023-05-11T20:16:15.569Z,1.92
2023-05-11T20:18:42.462Z,2.10
2023-05-11T20:21:08.861Z,2.40
2023-05-11T20:23:37.218Z,2.10
2023-05-11T20:26:04.588Z,2.03
2023-05-11T20:28:31.071Z,1.60
2023-05-11T20:30:57.422Z,1.92
2023-05-11T20:35:53.840Z,2.10
2023-05-11T20:38:20.478Z,2.10
2023-05-11T20:40:46.837Z,2.25
2023-05-11T20:43:14.750Z,2.10
2023-05-11T20:45:41.459Z,2.22
2023-05-11T20:48:08.027Z,2.95
2023-05-11T20:50:34.684Z,2.55
2023-05-11T20:53:01.037Z,2.63
2023-05-11T20:55:27.366Z,2.65
2023-05-11T20:57:54.242Z,2.55
2023-05-11T21:00:20.971Z,3.50
2023-05-11T21:02:47.706Z,2.83
2023-05-11T21:05:14.314Z,3.35
2023-05-11T21:07:40.644Z,3.13
2023-05-11T21:10:07.762Z,3.97
2023-05-11T21:12:34.563Z,3.75
2023-05-11T21:15:00.981Z,2.78
2023-05-11T21:17:27.343Z,4.93
2023-05-11T21:19:54.277Z,3.03
2023-05-11T21:22:20.728Z,2.63
2023-05-11T21:24:47.059Z,3.88
2023-05-11T21:27:13.669Z,3.35
2023-05-11T21:29:39.982Z,3.25
2023-05-11T21:32:06.802Z,2.08
2023-05-11T21:34:33.561Z,1.90
2023-05-11T21:36:59.886Z,2.80
2023-05-11T21:39:26.264Z,2.47
2023-05-11T21:41:52.979Z,1.92
2023-05-11T21:44:19.810Z,1.60
2023-05-11T21:46:46.633Z,2.03
2023-05-11T21:49:13.557Z,2.17
2023-05-11T21:51:39.945Z,1.83
2023-05-11T21:54:06.641Z,1.90
2023-05-11T21:56:33.275Z,2.10
2023-05-11T21:58:59.662Z,2.45
2023-05-11T22:01:26.417Z,1.95
2023-05-11T22:03:53.078Z,2.55
2023-05-11T22:06:19.839Z,2.17
2023-05-11T22:08:46.303Z,2.22
2023-05-11T22:11:12.696Z,1.77
2023-05-11T22:13:39.502Z,2.15
2023-05-11T22:16:06.289Z,2.00
2023-05-11T22:18:32.917Z,1.90
2023-05-11T22:20:59.647Z,2.13
2023-05-11T22:23:26.747Z,2.17
2023-05-11T22:25:53.264Z,1.90
2023-05-11T22:28:20.117Z,2.53
2023-05-11T22:30:46.525Z,2.00
2023-05-11T22:33:13.244Z,2.10
2023-05-11T22:35:39.855Z,1.95
2023-05-11T22:38:06.296Z,2.28
2023-05-11T22:40:32.645Z,2.50
2023-05-11T22:42:58.969Z,2.20
2023-05-11T22:45:25.436Z,2.33
2023-05-11T22:47:52.463Z,2.10
2023-05-11T22:50:19.147Z,2.30
2023-05-11T22:52:47.141Z,2.20
2023-05-11T22:55:14.007Z,2.40
2023-05-11T22:57:40.346Z,2.20
2023-05-11T23:00:11.266Z,2.80
2023-05-11T23:02:38.610Z,2.40
2023-05-11T23:05:05.505Z,2.00
2023-05-11T23:07:31.851Z,2.38
2023-05-11T23:09:58.835Z,2.17
2023-05-11T23:12:25.190Z,2.60
2023-05-11T23:14:52.219Z,2.95
2023-05-11T23:17:19.243Z,2.20
2023-05-11T23:19:45.641Z,2.08
2023-05-11T23:22:11.973Z,2.40
2023-05-11T23:24:38.740Z,2.45
2023-05-11T23:27:05.347Z,2.50
2023-05-11T23:29:31.887Z,2.42
2023-05-11T23:31:58.264Z,2.65
2023-05-11T23:34:25.031Z,2.67
2023-05-11T23:36:51.419Z,3.05
2023-05-11T23:39:17.795Z,2.42
2023-05-11T23:41:44.639Z,3.35
2023-05-11T23:44:11.043Z,3.13
2023-05-11T23:46:37.420Z,3.40
2023-05-11T23:49:04.657Z,2.70
2023-05-11T23:51:30.977Z,2.67
2023-05-11T23:53:57.342Z,2.60
2023-05-11T23:56:24.213Z,2.90
2023-05-11T23:58:50.592Z,2.72
